createdAt,value
2018-09-07T00:00:19.464Z,1007.62
2018-09-07T00:01:19.458Z,1007.67
2018-09-07T00:02:19.458Z,1007.70
2018-09-07T00:03:19.452Z,1007.69
2018-09-07T00:04:19.453Z,1007.71
2018-09-07T00:05:19.450Z,1007.70
2018-09-07T00:06:19.442Z,1007.70
2018-09-07T00:07:19.438Z,1007.70
2018-09-07T00:08:19.442Z,1007.69
2018-09-07T00:09:19.436Z,1007.68
2018-09-07T00:10:19.432Z,1007.64
2018-09-07T00:11:19.429Z,1007.65
2018-09-07T00:12:19.422Z,1007.65
2018-09-07T00:13:19.416Z,1007.69
2018-09-07T00:14:19.412Z,1007.68
2018-09-07T00:15:19.409Z,1007.69
2018-09-07T00:16:19.410Z,1007.61
2018-09-07T00:17:19.406Z,1007.61
2018-09-07T00:18:19.403Z,1007.62
2018-09-07T00:19:19.398Z,1007.61
2018-09-07T00:20:19.391Z,1007.62
2018-09-07T00:21:19.386Z,1007.63
2018-09-07T00:22:19.390Z,1007.58
2018-09-07T00:23:19.385Z,1007.61
2018-09-07T00:24:19.377Z,1007.61
2018-09-07T00:25:19.373Z,1007.62
2018-09-07T00:26:19.369Z,1007.59
2018-09-07T00:27:19.366Z,1007.60
2018-09-07T00:28:19.367Z,1007.66
2018-09-07T00:29:19.362Z,1007.63
2018-09-07T00:30:19.365Z,1007.63
2018-09-07T00:31:19.355Z,1007.60
2018-09-07T00:32:19.347Z,1007.66
2018-09-07T00:33:19.344Z,1007.63
2018-09-07T00:34:19.340Z,1007.63
2018-09-07T00:35:19.337Z,1007.62
2018-09-07T00:36:19.338Z,1007.60
2018-09-07T00:37:19.341Z,1007.67
2018-09-07T00:38:19.325Z,1007.63
2018-09-07T00:39:19.323Z,1007.64
2018-09-07T00:40:19.323Z,1007.69
2018-09-07T00:41:19.320Z,1007.70
2018-09-07T00:42:19.315Z,1007.71
2018-09-07T00:43:19.313Z,1007.72
2018-09-07T00:44:19.305Z,1007.71
2018-09-07T00:45:19.303Z,1007.69
2018-09-07T00:46:19.297Z,1007.69
2018-09-07T00:47:19.293Z,1007.67
2018-09-07T00:48:19.295Z,1007.68
2018-09-07T00:49:19.291Z,1007.69
2018-09-07T00:50:19.289Z,1007.71
2018-09-07T00:51:19.288Z,1007.69
2018-09-07T00:52:19.276Z,1007.72
2018-09-07T00:53:19.272Z,1007.72
2018-09-07T00:54:19.273Z,1007.77
2018-09-07T00:55:19.273Z,1007.66
2018-09-07T00:56:19.263Z,1007.64
2018-09-07T00:57:19.258Z,1007.65
2018-09-07T00:58:19.256Z,1007.63
2018-09-07T00:59:19.256Z,1007.61
2018-09-07T01:00:19.254Z,1007.60
2018-09-07T01:01:19.250Z,1007.61
2018-09-07T01:02:19.247Z,1007.63
2018-09-07T01:03:19.244Z,1007.63
2018-09-07T01:04:19.235Z,1007.64
2018-09-07T01:05:19.232Z,1007.66
2018-09-07T01:06:19.228Z,1007.63
2018-09-07T01:07:19.225Z,1007.68
2018-09-07T01:08:19.225Z,1007.70
2018-09-07T01:09:19.221Z,1007.70
2018-09-07T01:10:19.214Z,1007.67
2018-09-07T01:11:19.211Z,1007.68
2018-09-07T01:12:19.212Z,1007.69
2018-09-07T01:13:19.207Z,1007.67
2018-09-07T01:14:19.206Z,1007.67
2018-09-07T01:15:19.264Z,1007.66
2018-09-07T01:16:19.194Z,1007.64
2018-09-07T01:17:19.191Z,1007.64
2018-09-07T01:18:19.188Z,1007.66
2018-09-07T01:19:19.185Z,1007.66
2018-09-07T01:20:19.186Z,1007.72
2018-09-07T01:21:19.183Z,1007.75
2018-09-07T01:22:19.179Z,1007.74
2018-09-07T01:23:19.174Z,1007.76
2018-09-07T01:24:19.167Z,1007.69
2018-09-07T01:25:19.163Z,1007.64
2018-09-07T01:26:19.163Z,1007.66
2018-09-07T01:27:19.160Z,1007.64
2018-09-07T01:28:19.154Z,1007.62
2018-09-07T01:29:19.152Z,1007.68
2018-09-07T01:30:19.146Z,1007.66
2018-09-07T01:31:19.143Z,1007.62
2018-09-07T01:32:19.145Z,1007.66
2018-09-07T01:33:19.141Z,1007.65
2018-09-07T01:34:19.138Z,1007.65
2018-09-07T01:35:19.139Z,1007.63
2018-09-07T01:36:19.126Z,1007.65
2018-09-07T01:37:19.123Z,1007.65
2018-09-07T01:38:19.119Z,1007.63
2018-09-07T01:39:19.116Z,1007.66
2018-09-07T01:40:19.119Z,1007.57
2018-09-07T01:41:19.113Z,1007.65
2018-09-07T01:42:19.105Z,1007.59
2018-09-07T01:43:19.103Z,1007.55
2018-09-07T01:44:19.105Z,1007.51
2018-09-07T01:45:19.100Z,1007.45
2018-09-07T01:46:19.098Z,1007.45
2018-09-07T01:47:19.095Z,1007.40
2018-09-07T01:48:19.087Z,1007.38
2018-09-07T01:49:19.086Z,1007.38
2018-09-07T01:50:19.079Z,1007.44
2018-09-07T01:51:19.079Z,1007.52
2018-09-07T01:52:19.078Z,1007.52
2018-09-07T01:53:19.073Z,1007.50
2018-09-07T01:54:19.070Z,1007.51
2018-09-07T01:55:19.067Z,1007.53
2018-09-07T01:56:19.059Z,1007.54
2018-09-07T01:57:19.056Z,1007.47
2018-09-07T01:58:19.057Z,1007.43
2018-09-07T01:59:19.054Z,1007.47
2018-09-07T02:00:19.046Z,1007.47
2018-09-07T02:01:19.044Z,1007.49
2018-09-07T02:02:19.040Z,1007.45
2018-09-07T02:03:19.034Z,1007.47
2018-09-07T02:04:19.037Z,1007.40
2018-09-07T02:05:19.035Z,1007.41
2018-09-07T02:06:19.030Z,1007.35
2018-09-07T02:07:19.026Z,1007.40
2018-09-07T02:08:19.017Z,1007.35
2018-09-07T02:09:19.013Z,1007.36
2018-09-07T02:10:19.011Z,1007.32
2018-09-07T02:11:19.009Z,1007.37
2018-09-07T02:12:19.008Z,1007.32
2018-09-07T02:13:19.004Z,1007.37
2018-09-07T02:14:18.996Z,1007.42
2018-09-07T02:15:18.994Z,1007.37
2018-09-07T02:16:18.993Z,1007.46
2018-09-07T02:17:18.989Z,1007.43
2018-09-07T02:18:18.984Z,1007.41
2018-09-07T02:19:18.981Z,1007.41
2018-09-07T02:20:18.974Z,1007.38
2018-09-07T02:21:18.968Z,1007.37
2018-09-07T02:22:18.968Z,1007.32
2018-09-07T02:23:18.963Z,1007.27
2018-09-07T02:24:18.961Z,1007.26
2018-09-07T02:25:18.957Z,1007.31
2018-09-07T02:26:18.955Z,1007.36
2018-09-07T02:27:18.951Z,1007.31
2018-09-07T02:28:18.941Z,1007.36
2018-09-07T02:29:18.937Z,1007.31
2018-09-07T02:30:18.988Z,1007.30
2018-09-07T02:31:18.934Z,1007.31
2018-09-07T02:32:18.928Z,1007.36
2018-09-07T02:33:18.925Z,1007.34
2018-09-07T02:34:18.922Z,1007.32
2018-09-07T02:35:18.914Z,1007.31
2018-09-07T02:36:18.915Z,1007.34
2018-09-07T02:37:18.911Z,1007.35
2018-09-07T02:38:18.912Z,1007.31
2018-09-07T02:39:18.903Z,1007.32
2018-09-07T02:40:18.893Z,1007.29
2018-09-07T02:41:18.889Z,1007.26
2018-09-07T02:42:18.888Z,1007.31
2018-09-07T02:43:18.882Z,1007.33
2018-09-07T02:44:18.886Z,1007.32
2018-09-07T02:45:18.879Z,1007.29
2018-09-07T02:46:18.871Z,1007.28
2018-09-07T02:47:18.867Z,1007.26
2018-09-07T02:48:18.867Z,1007.25
2018-09-07T02:49:18.863Z,1007.25
2018-09-07T02:50:18.859Z,1007.27
2018-09-07T02:51:18.856Z,1007.24
2018-09-07T02:52:18.847Z,1007.26
2018-09-07T02:53:18.842Z,1007.26
2018-09-07T02:54:18.843Z,1007.29
2018-09-07T02:55:18.840Z,1007.22
2018-09-07T02:56:18.830Z,1007.28
2018-09-07T02:57:18.829Z,1007.25
2018-09-07T02:58:18.823Z,1007.22
2018-09-07T02:59:18.824Z,1007.23
2018-09-07T03:00:18.820Z,1007.21
2018-09-07T03:01:18.816Z,1007.21
2018-09-07T03:02:18.809Z,1007.17
2018-09-07T03:03:18.803Z,1007.18
2018-09-07T03:04:18.805Z,1007.19
2018-09-07T03:05:18.801Z,1007.26
2018-09-07T03:06:18.797Z,1007.20
2018-09-07T03:07:18.795Z,1007.18
2018-09-07T03:08:18.785Z,1007.20
2018-09-07T03:09:18.780Z,1007.19
2018-09-07T03:10:18.780Z,1007.18
2018-09-07T03:11:18.774Z,1007.20
2018-09-07T03:12:18.773Z,1007.18
2018-09-07T03:13:18.770Z,1007.14
2018-09-07T03:14:18.767Z,1007.19
2018-09-07T03:15:18.764Z,1007.16
2018-09-07T03:16:18.756Z,1007.19
2018-09-07T03:17:18.750Z,1007.13
2018-09-07T03:18:18.752Z,1007.07
2018-09-07T03:19:18.752Z,1007.09
2018-09-07T03:20:18.740Z,1007.08
2018-09-07T03:21:18.734Z,1007.14
2018-09-07T03:22:18.731Z,1007.16
2018-09-07T03:23:18.736Z,1007.23
2018-09-07T03:24:18.729Z,1007.16
2018-09-07T03:25:18.724Z,1007.11
2018-09-07T03:26:18.722Z,1007.11
2018-09-07T03:27:18.748Z,1007.05
2018-09-07T03:28:18.710Z,1007.07
2018-09-07T03:29:18.705Z,1007.09
2018-09-07T03:30:18.701Z,1007.11
2018-09-07T03:31:18.698Z,1007.09
2018-09-07T03:32:18.701Z,1007.08
2018-09-07T03:33:18.695Z,1007.07
2018-09-07T03:34:18.687Z,1007.07
2018-09-07T03:35:18.686Z,1007.11
2018-09-07T03:36:18.684Z,1007.14
2018-09-07T03:37:18.687Z,1007.12
2018-09-07T03:38:18.674Z,1007.15
2018-09-07T03:39:18.672Z,1007.17
2018-09-07T03:40:18.663Z,1007.20
2018-09-07T03:41:18.659Z,1007.18
2018-09-07T03:42:18.663Z,1007.19
2018-09-07T03:43:18.651Z,1007.22
2018-09-07T03:44:18.653Z,1007.20
2018-09-07T03:45:18.702Z,1007.21
2018-09-07T03:46:18.647Z,1007.23
2018-09-07T03:47:18.642Z,1007.26
2018-09-07T03:48:18.633Z,1007.23
2018-09-07T03:49:18.628Z,1007.25
2018-09-07T03:50:18.630Z,1007.25
2018-09-07T03:51:18.627Z,1007.22
2018-09-07T03:52:18.619Z,1007.23
2018-09-07T03:53:18.613Z,1007.22
2018-09-07T03:54:18.610Z,1007.18
2018-09-07T03:55:18.607Z,1007.19
2018-09-07T03:56:18.605Z,1007.18
2018-09-07T03:57:18.603Z,1007.24
2018-09-07T03:58:18.599Z,1007.29
2018-09-07T03:59:18.595Z,1007.27
2018-09-07T04:00:18.588Z,1007.24
2018-09-07T04:01:18.584Z,1007.25
2018-09-07T04:02:18.580Z,1007.27
2018-09-07T04:03:18.576Z,1007.32
2018-09-07T04:04:18.577Z,1007.31
2018-09-07T04:05:18.571Z,1007.28
2018-09-07T04:06:18.564Z,1007.28
2018-09-07T04:07:18.561Z,1007.32
2018-09-07T04:08:18.567Z,1007.34
2018-09-07T04:09:18.558Z,1007.31
2018-09-07T04:10:18.554Z,1007.33
2018-09-07T04:11:18.634Z,1007.32
2018-09-07T04:12:18.542Z,1007.35
2018-09-07T04:13:18.538Z,1007.34
2018-09-07T04:14:18.535Z,1007.35
2018-09-07T04:15:18.531Z,1007.37
2018-09-07T04:16:18.533Z,1007.34
2018-09-07T04:17:18.529Z,1007.35
2018-09-07T04:18:18.524Z,1007.32
2018-09-07T04:19:18.528Z,1007.30
2018-09-07T04:20:18.515Z,1007.27
2018-09-07T04:21:18.509Z,1007.30
2018-09-07T04:22:18.509Z,1007.37
2018-09-07T04:23:18.512Z,1007.29
2018-09-07T04:24:18.499Z,1007.28
2018-09-07T04:25:18.496Z,1007.31
2018-09-07T04:26:18.490Z,1007.28
2018-09-07T04:27:18.487Z,1007.25
2018-09-07T04:28:18.581Z,1007.24
2018-09-07T04:29:18.485Z,1007.26
2018-09-07T04:30:18.481Z,1007.24
2018-09-07T04:31:18.478Z,1007.25
2018-09-07T04:32:18.469Z,1007.24
2018-09-07T04:33:18.465Z,1007.25
2018-09-07T04:34:18.461Z,1007.24
2018-09-07T04:35:18.460Z,1007.23
2018-09-07T04:36:18.459Z,1007.24
2018-09-07T04:37:18.454Z,1007.25
2018-09-07T04:38:18.450Z,1007.36
2018-09-07T04:39:18.442Z,1007.33
2018-09-07T04:40:18.444Z,1007.34
2018-09-07T04:41:18.508Z,1007.32
2018-09-07T04:42:18.436Z,1007.38
2018-09-07T04:43:18.432Z,1007.33
2018-09-07T04:44:18.424Z,1007.32
2018-09-07T04:45:18.421Z,1007.36
2018-09-07T04:46:18.415Z,1007.34
2018-09-07T04:47:18.414Z,1007.34
2018-09-07T04:48:18.462Z,1007.41
2018-09-07T04:49:18.408Z,1007.38
2018-09-07T04:50:18.404Z,1007.33
2018-09-07T04:51:18.399Z,1007.36
2018-09-07T04:52:18.393Z,1007.40
2018-09-07T04:53:18.388Z,1007.36
2018-09-07T04:54:18.389Z,1007.37
2018-09-07T04:55:18.386Z,1007.38
2018-09-07T04:56:18.376Z,1007.37
2018-09-07T04:57:18.371Z,1007.37
2018-09-07T04:58:18.553Z,1007.33
2018-09-07T04:59:18.364Z,1007.39
2018-09-07T05:00:18.366Z,1007.39
2018-09-07T05:01:18.361Z,1007.45
2018-09-07T05:02:18.355Z,1007.41
2018-09-07T05:03:18.352Z,1007.42
2018-09-07T05:04:18.345Z,1007.43
2018-09-07T05:05:18.340Z,1007.39
2018-09-07T05:06:18.336Z,1007.39
2018-09-07T05:07:18.333Z,1007.39
2018-09-07T05:08:18.333Z,1007.38
2018-09-07T05:09:18.329Z,1007.37
2018-09-07T05:10:18.319Z,1007.35
2018-09-07T05:11:18.316Z,1007.38
2018-09-07T05:12:18.316Z,1007.37
2018-09-07T05:13:18.312Z,1007.40
2018-09-07T05:14:18.309Z,1007.42
2018-09-07T05:15:18.303Z,1007.42
2018-09-07T05:16:18.296Z,1007.45
2018-09-07T05:17:18.292Z,1007.46
2018-09-07T05:18:18.288Z,1007.41
2018-09-07T05:19:18.283Z,1007.43
2018-09-07T05:20:18.284Z,1007.41
2018-09-07T05:21:18.281Z,1007.42
2018-09-07T05:22:18.277Z,1007.44
2018-09-07T05:23:18.273Z,1007.43
2018-09-07T05:24:18.264Z,1007.44
2018-09-07T05:25:18.261Z,1007.46
2018-09-07T05:26:18.261Z,1007.38
2018-09-07T05:27:18.257Z,1007.46
2018-09-07T05:28:18.249Z,1007.42
2018-09-07T05:29:18.245Z,1007.42
2018-09-07T05:30:18.244Z,1007.43
2018-09-07T05:31:18.237Z,1007.40
2018-09-07T05:32:18.238Z,1007.42
2018-09-07T05:33:18.233Z,1007.37
2018-09-07T05:34:18.230Z,1007.45
2018-09-07T05:35:18.225Z,1007.39
2018-09-07T05:36:18.218Z,1007.38
2018-09-07T05:37:18.213Z,1007.39
2018-09-07T05:38:18.210Z,1007.39
2018-09-07T05:39:18.265Z,1007.36
2018-09-07T05:40:18.208Z,1007.39
2018-09-07T05:41:18.203Z,1007.42
2018-09-07T05:42:18.195Z,1007.46
2018-09-07T05:43:18.191Z,1007.46
2018-09-07T05:44:18.191Z,1007.48
2018-09-07T05:45:18.188Z,1007.51
2018-09-07T05:46:18.184Z,1007.48
2018-09-07T05:47:18.180Z,1007.42
2018-09-07T05:48:18.171Z,1007.48
2018-09-07T05:49:18.168Z,1007.44
2018-09-07T05:50:18.164Z,1007.45
2018-09-07T05:51:18.166Z,1007.47
2018-09-07T05:52:18.161Z,1007.43
2018-09-07T05:53:18.158Z,1007.43
2018-09-07T05:54:18.154Z,1007.39
2018-09-07T05:55:18.150Z,1007.40
2018-09-07T05:56:18.143Z,1007.37
2018-09-07T05:57:18.137Z,1007.33
2018-09-07T05:58:18.139Z,1007.40
2018-09-07T05:59:18.137Z,1007.35
2018-09-07T06:00:18.127Z,1007.41
2018-09-07T06:01:18.122Z,1007.44
2018-09-07T06:02:18.118Z,1007.38
2018-09-07T06:03:18.115Z,1007.42
2018-09-07T06:04:18.117Z,1007.42
2018-09-07T06:05:18.112Z,1007.39
2018-09-07T06:06:18.110Z,1007.40
2018-09-07T06:07:18.106Z,1007.38
2018-09-07T06:08:18.098Z,1007.39
2018-09-07T06:09:18.095Z,1007.37
2018-09-07T06:10:18.090Z,1007.36
2018-09-07T06:11:18.086Z,1007.43
2018-09-07T06:12:18.087Z,1007.39
2018-09-07T06:13:18.081Z,1007.43
2018-09-07T06:14:18.074Z,1007.44
2018-09-07T06:15:18.075Z,1007.51
2018-09-07T06:16:18.073Z,1007.50
2018-09-07T06:17:18.069Z,1007.50
2018-09-07T06:18:18.066Z,1007.51
2018-09-07T06:19:18.062Z,1007.53
2018-09-07T06:20:18.055Z,1007.50
2018-09-07T06:21:18.050Z,1007.49
2018-09-07T06:22:18.054Z,1007.58
2018-09-07T06:23:18.044Z,1007.52
2018-09-07T06:24:18.045Z,1007.55
2018-09-07T06:25:18.043Z,1007.52
2018-09-07T06:26:18.038Z,1007.56
2018-09-07T06:27:18.036Z,1007.49
2018-09-07T06:28:18.025Z,1007.52
2018-09-07T06:29:18.021Z,1007.50
2018-09-07T06:30:18.026Z,1007.50
2018-09-07T06:31:18.018Z,1007.49
2018-09-07T06:32:18.011Z,1007.53
2018-09-07T06:33:18.139Z,1007.49
2018-09-07T06:34:18.005Z,1007.47
2018-09-07T06:35:18.001Z,1007.51
2018-09-07T06:36:18.001Z,1007.51
2018-09-07T06:37:17.999Z,1007.46
2018-09-07T06:38:18.011Z,1007.50
2018-09-07T06:39:18.011Z,1007.49
2018-09-07T06:40:17.984Z,1007.49
2018-09-07T06:41:17.979Z,1007.50
2018-09-07T06:42:17.975Z,1007.47
2018-09-07T06:43:17.973Z,1007.45
2018-09-07T06:44:18.006Z,1007.48
2018-09-07T06:45:17.970Z,1007.49
2018-09-07T06:46:17.964Z,1007.51
2018-09-07T06:47:17.959Z,1007.47
2018-09-07T06:48:17.961Z,1007.51
2018-09-07T06:49:17.956Z,1007.58
2018-09-07T06:50:17.953Z,1007.57
2018-09-07T06:51:17.950Z,1007.54
2018-09-07T06:52:17.992Z,1007.53
2018-09-07T06:53:17.938Z,1007.54
2018-09-07T06:54:17.938Z,1007.54
2018-09-07T06:55:17.932Z,1007.56
2018-09-07T06:56:17.934Z,1007.49
2018-09-07T06:57:17.930Z,1007.56
2018-09-07T06:58:17.925Z,1007.54
2018-09-07T06:59:17.922Z,1007.63
2018-09-07T07:00:17.914Z,1007.59
2018-09-07T07:01:17.911Z,1007.61
2018-09-07T07:02:17.914Z,1007.61
2018-09-07T07:03:17.909Z,1007.64
2018-09-07T07:04:17.902Z,1007.65
2018-09-07T07:05:17.897Z,1007.64
2018-09-07T07:06:17.893Z,1007.67
2018-09-07T07:07:17.891Z,1007.66
2018-09-07T07:08:17.936Z,1007.59
2018-09-07T07:09:17.888Z,1007.63
2018-09-07T07:10:17.885Z,1007.62
2018-09-07T07:11:17.880Z,1007.64
2018-09-07T07:12:17.875Z,1007.66
2018-09-07T07:13:17.870Z,1007.64
2018-09-07T07:14:17.866Z,1007.69
2018-09-07T07:15:17.868Z,1007.67
2018-09-07T07:16:17.865Z,1007.61
2018-09-07T07:17:17.860Z,1007.66
2018-09-07T07:18:17.853Z,1007.64
2018-09-07T07:19:17.849Z,1007.63
2018-09-07T07:20:17.851Z,1007.65
2018-09-07T07:21:17.852Z,1007.65
2018-09-07T07:22:17.845Z,1007.53
2018-09-07T07:23:17.989Z,1007.66
2018-09-07T07:24:17.834Z,1007.65
2018-09-07T07:25:17.830Z,1007.69
2018-09-07T07:26:17.827Z,1007.70
2018-09-07T07:27:17.825Z,1007.63
2018-09-07T07:28:17.826Z,1007.62
2018-09-07T07:29:17.884Z,1007.66
2018-09-07T07:30:17.818Z,1007.68
2018-09-07T07:31:17.815Z,1007.64
2018-09-07T07:32:17.807Z,1007.61
2018-09-07T07:33:17.803Z,1007.61
2018-09-07T07:34:17.805Z,1007.60
2018-09-07T07:35:17.802Z,1007.67
2018-09-07T07:36:17.797Z,1007.61
2018-09-07T07:37:17.867Z,1007.65
2018-09-07T07:38:17.788Z,1007.65
2018-09-07T07:39:17.785Z,1007.68
2018-09-07T07:40:17.785Z,1007.64
2018-09-07T07:41:17.785Z,1007.65
2018-09-07T07:42:17.779Z,1007.69
2018-09-07T07:43:17.777Z,1007.67
2018-09-07T07:44:17.768Z,1007.70
2018-09-07T07:45:17.763Z,1007.70
2018-09-07T07:46:17.760Z,1007.70
2018-09-07T07:47:17.757Z,1007.72
2018-09-07T07:48:17.759Z,1007.66
2018-09-07T07:49:17.755Z,1007.72
2018-09-07T07:50:17.747Z,1007.73
2018-09-07T07:51:17.743Z,1007.68
2018-09-07T07:52:17.744Z,1007.70
2018-09-07T07:53:17.741Z,1007.69
2018-09-07T07:54:17.741Z,1007.78
2018-09-07T07:55:17.739Z,1007.70
2018-09-07T07:56:17.731Z,1007.76
2018-09-07T07:57:17.722Z,1007.73
2018-09-07T07:58:17.721Z,1007.74
2018-09-07T07:59:17.716Z,1007.77
2018-09-07T08:00:17.719Z,1007.79
2018-09-07T08:01:17.758Z,1007.78
2018-09-07T08:02:17.710Z,1007.85
2018-09-07T08:03:17.708Z,1007.92
2018-09-07T08:04:17.700Z,1007.88
2018-09-07T08:05:17.695Z,1007.94
2018-09-07T08:06:17.697Z,1007.94
2018-09-07T08:07:17.694Z,1007.97
2018-09-07T08:08:17.688Z,1007.96
2018-09-07T08:09:17.684Z,1007.94
2018-09-07T08:10:17.678Z,1007.99
2018-09-07T08:11:17.675Z,1007.91
2018-09-07T08:12:17.684Z,1007.96
2018-09-07T08:13:17.672Z,1008.00
2018-09-07T08:14:17.668Z,1007.98
2018-09-07T08:15:17.666Z,1008.05
2018-09-07T08:16:17.658Z,1008.06
2018-09-07T08:17:17.652Z,1008.01
2018-09-07T08:18:17.650Z,1008.11
2018-09-07T08:19:17.645Z,1008.05
2018-09-07T08:20:17.648Z,1008.10
2018-09-07T08:21:17.643Z,1008.09
2018-09-07T08:22:17.636Z,1008.11
2018-09-07T08:23:17.632Z,1008.08
2018-09-07T08:24:17.636Z,1008.14
2018-09-07T08:25:17.629Z,1008.09
2018-09-07T08:26:17.624Z,1008.05
2018-09-07T08:27:17.620Z,1008.10
2018-09-07T08:28:17.612Z,1008.22
2018-09-07T08:29:17.607Z,1008.18
2018-09-07T08:30:17.605Z,1008.16
2018-09-07T08:31:17.600Z,1008.21
2018-09-07T08:32:17.659Z,1008.25
2018-09-07T08:33:17.598Z,1008.26
2018-09-07T08:34:17.594Z,1008.21
2018-09-07T08:35:17.591Z,1008.21
2018-09-07T08:36:17.582Z,1008.20
2018-09-07T08:37:17.578Z,1008.28
2018-09-07T08:38:17.580Z,1008.30
2018-09-07T08:39:17.576Z,1008.32
2018-09-07T08:40:17.588Z,1008.33
2018-09-07T08:41:17.563Z,1008.32
2018-09-07T08:42:17.559Z,1008.38
2018-09-07T08:43:17.557Z,1008.41
2018-09-07T08:44:17.557Z,1008.41
2018-09-07T08:45:17.551Z,1008.49
2018-09-07T08:46:17.548Z,1008.45
2018-09-07T08:47:17.545Z,1008.50
2018-09-07T08:48:17.538Z,1008.54
2018-09-07T08:49:17.535Z,1008.55
2018-09-07T08:50:17.531Z,1008.51
2018-09-07T08:51:17.527Z,1008.51
2018-09-07T08:52:17.530Z,1008.54
2018-09-07T08:53:17.527Z,1008.46
2018-09-07T08:54:17.575Z,1008.57
2018-09-07T08:55:17.515Z,1008.60
2018-09-07T08:56:17.517Z,1008.57
2018-09-07T08:57:17.513Z,1008.58
2018-09-07T08:58:17.509Z,1008.62
2018-09-07T08:59:17.507Z,1008.60
2018-09-07T09:00:17.524Z,1008.56
2018-09-07T09:01:17.497Z,1008.58
2018-09-07T09:02:17.494Z,1008.60
2018-09-07T09:03:17.491Z,1008.62
2018-09-07T09:04:17.493Z,1008.63
2018-09-07T09:05:17.490Z,1008.61
2018-09-07T09:06:17.488Z,1008.64
2018-09-07T09:07:17.486Z,1008.70
2018-09-07T09:08:17.478Z,1008.70
2018-09-07T09:09:17.475Z,1008.70
2018-09-07T09:10:17.481Z,1008.68
2018-09-07T09:11:17.476Z,1008.69
2018-09-07T09:12:17.469Z,1008.68
2018-09-07T09:13:17.467Z,1008.67
2018-09-07T09:14:17.463Z,1008.76
2018-09-07T09:15:17.462Z,1008.71
2018-09-07T09:16:17.466Z,1008.67
2018-09-07T09:17:17.462Z,1008.70
2018-09-07T09:18:17.460Z,1008.75
2018-09-07T09:19:17.459Z,1008.73
2018-09-07T09:20:17.452Z,1008.78
2018-09-07T09:21:17.452Z,1008.81
2018-09-07T09:22:17.447Z,1008.83
2018-09-07T09:23:17.447Z,1008.87
2018-09-07T09:24:17.577Z,1008.93
2018-09-07T09:25:17.450Z,1008.86
2018-09-07T09:26:17.440Z,1008.94
2018-09-07T09:27:17.438Z,1009.01
2018-09-07T09:28:17.443Z,1009.29
2018-09-07T09:29:17.440Z,1009.45
2018-09-07T09:30:17.442Z,1009.37
2018-09-07T09:31:17.440Z,1009.63
2018-09-07T09:32:17.435Z,1009.56
2018-09-07T09:33:17.433Z,1009.76
2018-09-07T09:34:17.435Z,1009.59
2018-09-07T09:35:17.436Z,1009.40
2018-09-07T09:36:17.442Z,1009.67
2018-09-07T09:37:17.443Z,1009.70
2018-09-07T09:38:17.445Z,1009.82
2018-09-07T09:39:17.447Z,1009.39
2018-09-07T09:40:17.447Z,1009.79
2018-09-07T09:41:17.450Z,1009.88
2018-09-07T09:42:17.459Z,1009.44
2018-09-07T09:43:17.462Z,1009.59
2018-09-07T09:44:17.468Z,1009.53
2018-09-07T09:45:17.468Z,1009.63
2018-09-07T09:46:17.480Z,1009.78
2018-09-07T09:47:17.583Z,1009.67
2018-09-07T09:48:17.493Z,1009.66
2018-09-07T09:49:17.496Z,1009.57
2018-09-07T09:50:17.502Z,1009.70
2018-09-07T09:51:17.509Z,1009.55
2018-09-07T09:52:17.510Z,1009.41
2018-09-07T09:53:17.616Z,1009.42
2018-09-07T09:54:17.524Z,1009.50
2018-09-07T09:55:17.530Z,1009.41
2018-09-07T09:56:17.543Z,1009.47
2018-09-07T09:57:17.550Z,1009.46
2018-09-07T09:58:17.610Z,1009.38
2018-09-07T09:59:17.685Z,1009.41
2018-09-07T10:00:17.572Z,1009.41
2018-09-07T10:01:17.576Z,1009.29
2018-09-07T10:02:17.595Z,1009.28
2018-09-07T10:03:17.592Z,1009.56
2018-09-07T10:04:17.593Z,1009.33
2018-09-07T10:05:17.598Z,1009.30
2018-09-07T10:06:17.604Z,1009.25
2018-09-07T10:07:17.611Z,1009.44
2018-09-07T10:08:17.638Z,1009.28
2018-09-07T10:09:17.633Z,1009.29
2018-09-07T10:10:17.632Z,1009.30
2018-09-07T10:11:17.640Z,1009.31
2018-09-07T10:12:17.650Z,1009.40
2018-09-07T10:13:17.642Z,1009.30
2018-09-07T10:14:17.651Z,1009.33
2018-09-07T10:15:17.657Z,1009.34
2018-09-07T10:16:17.658Z,1009.33
2018-09-07T10:17:17.661Z,1009.29
2018-09-07T10:18:17.668Z,1009.31
2018-09-07T10:19:17.684Z,1009.35
2018-09-07T10:20:17.686Z,1009.42
2018-09-07T10:21:17.685Z,1009.38
2018-09-07T10:22:17.690Z,1009.78
2018-09-07T10:23:17.697Z,1009.80
2018-09-07T10:24:17.694Z,1009.72
2018-09-07T10:25:17.751Z,1009.72
2018-09-07T10:26:17.702Z,1009.74
2018-09-07T10:27:17.706Z,1009.78
2018-09-07T10:28:17.715Z,1009.54
2018-09-07T10:29:17.720Z,1009.55
2018-09-07T10:30:17.719Z,1009.49
2018-09-07T10:31:17.725Z,1009.54
2018-09-07T10:32:17.738Z,1009.62
2018-09-07T10:33:17.740Z,1009.72
2018-09-07T10:34:17.743Z,1009.51
2018-09-07T10:35:17.749Z,1009.46
2018-09-07T10:36:17.749Z,1009.49
2018-09-07T10:37:17.754Z,1009.49
2018-09-07T10:38:17.759Z,1009.54
2018-09-07T10:39:17.766Z,1009.56
2018-09-07T10:40:17.776Z,1009.54
2018-09-07T10:41:17.780Z,1009.54
2018-09-07T10:42:17.786Z,1009.46
2018-09-07T10:43:17.791Z,1009.36
2018-09-07T10:44:17.844Z,1009.42
2018-09-07T10:45:17.796Z,1009.42
2018-09-07T10:46:17.805Z,1009.41
2018-09-07T10:47:17.809Z,1009.40
2018-09-07T10:48:17.808Z,1009.59
2018-09-07T10:49:17.815Z,1009.43
2018-09-07T10:50:17.817Z,1009.40
2018-09-07T10:51:17.820Z,1009.43
2018-09-07T10:52:17.829Z,1009.41
2018-09-07T10:53:17.834Z,1009.41
2018-09-07T10:54:17.840Z,1009.41
2018-09-07T10:55:17.841Z,1009.45
2018-09-07T10:56:17.842Z,1009.44
2018-09-07T10:57:17.844Z,1009.41
2018-09-07T10:58:17.848Z,1009.50
2018-09-07T10:59:17.859Z,1009.58
2018-09-07T11:00:17.862Z,1009.56
2018-09-07T11:01:17.862Z,1009.55
2018-09-07T11:02:17.861Z,1009.58
2018-09-07T11:03:17.864Z,1009.57
2018-09-07T11:04:17.872Z,1009.76
2018-09-07T11:05:17.873Z,1009.60
2018-09-07T11:06:17.876Z,1009.55
2018-09-07T11:07:17.879Z,1009.59
2018-09-07T11:08:17.877Z,1009.76
2018-09-07T11:09:17.878Z,1009.82
2018-09-07T11:10:17.881Z,1009.62
2018-09-07T11:11:17.884Z,1009.77
2018-09-07T11:12:17.893Z,1009.74
2018-09-07T11:13:17.894Z,1009.58
2018-09-07T11:14:17.897Z,1009.62
2018-09-07T11:15:17.902Z,1009.78
2018-09-07T11:16:17.901Z,1009.75
2018-09-07T11:17:17.903Z,1009.54
2018-09-07T11:18:17.912Z,1009.73
2018-09-07T11:19:17.917Z,1009.74
2018-09-07T11:20:17.916Z,1009.70
2018-09-07T11:21:17.920Z,1009.70
2018-09-07T11:22:17.923Z,1009.71
2018-09-07T11:23:17.928Z,1009.68
2018-09-07T11:24:17.935Z,1009.68
2018-09-07T11:25:17.944Z,1009.64
2018-09-07T11:26:17.939Z,1009.63
2018-09-07T11:27:17.943Z,1009.76
2018-09-07T11:28:17.953Z,1009.70
2018-09-07T11:29:17.957Z,1009.70
2018-09-07T11:30:17.959Z,1009.64
2018-09-07T11:31:17.964Z,1009.66
2018-09-07T11:32:17.966Z,1009.79
2018-09-07T11:33:17.967Z,1009.73
2018-09-07T11:34:17.973Z,1009.78
2018-09-07T11:35:17.977Z,1009.74
2018-09-07T11:36:17.976Z,1009.75
2018-09-07T11:37:17.979Z,1009.76
2018-09-07T11:38:17.982Z,1009.71
2018-09-07T11:39:17.991Z,1009.78
2018-09-07T11:40:18.031Z,1009.80
2018-09-07T11:41:18.052Z,1009.75
2018-09-07T11:42:17.999Z,1009.75
2018-09-07T11:43:18.002Z,1009.75
2018-09-07T11:44:17.999Z,1009.72
2018-09-07T11:45:18.002Z,1009.70
2018-09-07T11:46:18.005Z,1009.79
2018-09-07T11:47:18.008Z,1009.81
2018-09-07T11:48:18.013Z,1009.82
2018-09-07T11:49:18.032Z,1009.79
2018-09-07T11:50:18.013Z,1009.79
2018-09-07T11:51:18.016Z,1009.80
2018-09-07T11:52:18.023Z,1009.83
2018-09-07T11:53:18.023Z,1009.87
2018-09-07T11:54:18.026Z,1009.89
2018-09-07T11:55:18.029Z,1009.88
2018-09-07T11:56:18.027Z,1009.94
2018-09-07T11:57:18.026Z,1009.89
2018-09-07T11:58:18.083Z,1009.95
2018-09-07T11:59:18.031Z,1009.90
2018-09-07T12:00:18.038Z,1009.97
2018-09-07T12:01:18.038Z,1009.96
2018-09-07T12:02:18.044Z,1009.95
2018-09-07T12:03:18.038Z,1009.94
2018-09-07T12:04:18.106Z,1009.94
2018-09-07T12:05:18.036Z,1009.96